CWZZ

Saglek Bay  Airport

Canada

CWZZ 191705Z AUTO 09025KT ////SM //// BKN003 BKN008 M02/M02 A2984

Observed Flight Rules
Nov-19 @ 17:05 UTC (52 minutes ago)
Unavailable
Wind Clouds
90° at 25 knots
  • Broken at 300' AGL
  • Broken at 800' AGL
Temperatures Readings
Current -2°C / 28°F
Dewpoint -2°C / 28°F
Humidity 100%
Altimeter 29.84" Hg
Pressure 1010 hPa
Elevation 483
Observed Flight Rules
Nov-19 @ 17:05 UTC
(52 minutes ago)
UNK
Wind
90° at 25 knots
Clouds
  • Broken at 300' AGL
  • Broken at 800' AGL
Temperature Dewpoint
-2°C / 28°F -2°C / 28°F
Humidity Altimeter Pressure
100% 29.84" Hg 1010 hPa